Time;durP1;ratioP1;P1;durP2;ratioP2;P2;SDS_P1;SDS_P2;PMS_P1;PMS_P2;Temp;Humidity;BMP_temperature;BMP_pressure;BME280_temperature;BME280_humidity;BME280_pressure;Samples;Min_cycle;Max_cycle;Signal;HPM_P1;HPM_P2
2022/11/20 00:00:37;;;;;;;3.22;1.85;;;;;;;;;;4986714;28;20109;-40
2022/11/20 00:03:03;;;;;;;2.80;2.00;;;;;;;;;;4985113;28;20702;-40
2022/11/20 00:05:29;;;;;;;2.28;1.42;;;;;;;;;;4987889;28;20100;-40
2022/11/20 00:07:55;;;;;;;1.42;1.33;;;;;;;;;;4988809;28;20054;-40
2022/11/20 00:10:21;;;;;;;2.17;1.42;;;;;;;;;;4990813;28;20082;-39
2022/11/20 00:12:47;;;;;;;1.83;1.50;;;;;;;;;;4992187;28;20054;-40
2022/11/20 00:15:13;;;;;;;2.75;1.70;;;;;;;;;;4992053;28;20026;-39
2022/11/20 00:17:39;;;;;;;2.13;1.52;;;;;;;;;;4992100;28;20022;-39
2022/11/20 00:20:05;;;;;;;1.95;1.40;;;;;;;;;;4991182;28;20022;-40
2022/11/20 00:22:31;;;;;;;2.25;1.58;;;;;;;;;;4993082;28;20026;-41
2022/11/20 00:24:57;;;;;;;1.77;1.40;;;;;;;;;;5002064;28;20486;-41
2022/11/20 00:27:23;;;;;;;3.17;1.88;;;;;;;;;;4991967;28;20049;-40
2022/11/20 00:29:49;;;;;;;2.03;1.50;;;;;;;;;;4991650;28;20042;-40
2022/11/20 00:32:15;;;;;;;2.17;1.63;;;;;;;;;;4992478;28;20034;-39
2022/11/20 00:34:41;;;;;;;2.85;1.40;;;;;;;;;;4991274;28;20065;-39
2022/11/20 00:37:07;;;;;;;1.88;1.50;;;;;;;;;;4990002;28;20113;-39
2022/11/20 00:39:33;;;;;;;2.50;1.60;;;;;;;;;;4992094;28;20084;-40
2022/11/20 00:41:59;;;;;;;2.13;1.40;;;;;;;;;;4991437;28;20033;-39
2022/11/20 00:44:25;;;;;;;1.95;1.50;;;;;;;;;;4992698;28;20501;-39
2022/11/20 00:46:51;;;;;;;1.85;1.50;;;;;;;;;;4991360;28;20085;-39
2022/11/20 00:49:17;;;;;;;2.08;1.58;;;;;;;;;;4992871;28;20026;-39
2022/11/20 00:51:43;;;;;;;2.03;1.67;;;;;;;;;;4990562;28;20057;-43
2022/11/20 00:54:09;;;;;;;2.30;1.40;;;;;;;;;;4989661;28;20493;-40
2022/11/20 00:56:35;;;;;;;2.88;1.60;;;;;;;;;;4991115;28;20077;-40
2022/11/20 00:59:01;;;;;;;1.65;1.20;;;;;;;;;;4989339;28;20030;-39
2022/11/20 01:01:29;;;;;;;2.22;1.70;;;;;;;;;;4991835;28;20022;-40
2022/11/20 01:03:56;;;;;;;1.63;1.30;;;;;;;;;;4990482;28;20030;-41
2022/11/20 01:06:23;;;;;;;2.13;1.58;;;;;;;;;;4991944;28;20033;-40
2022/11/20 01:08:50;;;;;;;1.95;1.60;;;;;;;;;;4990564;28;20494;-40
2022/11/20 01:11:21;;;;;;;2.03;1.27;;;;;;;;;;4991322;28;20172;-39
2022/11/20 01:13:48;;;;;;;1.75;1.40;;;;;;;;;;4991245;28;20109;-41
2022/11/20 01:16:16;;;;;;;1.65;1.30;;;;;;;;;;4989913;28;20031;-39
2022/11/20 01:18:43;;;;;;;1.70;1.40;;;;;;;;;;4992061;28;20030;-42
2022/11/20 01:21:10;;;;;;;1.38;1.15;;;;;;;;;;4990223;28;20491;-40
2022/11/20 01:23:38;;;;;;;2.03;1.55;;;;;;;;;;4979985;28;20480;-40
2022/11/20 01:26:06;;;;;;;1.42;1.02;;;;;;;;;;4989848;28;20038;-40
2022/11/20 01:28:32;;;;;;;2.05;1.50;;;;;;;;;;4989933;28;20438;-42
2022/11/20 01:30:59;;;;;;;1.42;1.23;;;;;;;;;;4990649;28;20101;-40
2022/11/20 01:33:25;;;;;;;2.33;1.65;;;;;;;;;;4991349;28;20026;-39
2022/11/20 01:35:51;;;;;;;2.40;1.60;;;;;;;;;;4988851;28;20018;-39
2022/11/20 01:38:17;;;;;;;1.90;1.10;;;;;;;;;;4992287;28;20026;-39
2022/11/20 01:40:43;;;;;;;1.73;1.10;;;;;;;;;;4990518;28;20038;-43
2022/11/20 01:43:22;;;;;;;1.55;1.30;;;;;;;;;;4989993;28;20471;-42
2022/11/20 01:46:05;;;;;;;1.95;1.35;;;;;;;;;;4992293;28;20081;-39
2022/11/20 01:48:39;;;;;;;1.83;1.05;;;;;;;;;;4995757;28;20034;-40
2022/11/20 01:51:06;;;;;;;1.40;1.02;;;;;;;;;;4994082;28;20030;-39
2022/11/20 01:53:34;;;;;;;1.92;1.48;;;;;;;;;;4995338;28;20113;-40
2022/11/20 01:56:01;;;;;;;1.85;1.00;;;;;;;;;;4994330;28;20037;-39
2022/11/20 01:58:32;;;;;;;2.17;1.00;;;;;;;;;;4995739;28;20101;-39
2022/11/20 02:00:59;;;;;;;1.75;1.30;;;;;;;;;;4993650;28;20080;-39
2022/11/20 02:03:25;;;;;;;1.98;1.08;;;;;;;;;;4994500;28;20468;-39
2022/11/20 02:06:02;;;;;;;1.60;1.33;;;;;;;;;;4994245;28;20057;-39
2022/11/20 02:08:28;;;;;;;1.98;1.23;;;;;;;;;;4995636;28;20054;-39
2022/11/20 02:10:54;;;;;;;1.38;1.00;;;;;;;;;;4993733;28;20466;-39
2022/11/20 02:16:06;;;;;;;1.38;1.27;;;;;;;;;;4991451;28;20122;-40
2022/11/20 02:18:32;;;;;;;1.48;1.00;;;;;;;;;;4987330;28;20030;-39
2022/11/20 02:21:02;;;;;;;1.33;1.10;;;;;;;;;;4993952;28;20472;-40
2022/11/20 02:23:51;;;;;;;1.17;0.85;;;;;;;;;;5000674;28;20026;-39
2022/11/20 02:26:18;;;;;;;1.60;1.20;;;;;;;;;;4992303;28;20047;-40
2022/11/20 02:28:44;;;;;;;1.77;1.23;;;;;;;;;;4994203;28;20034;-43
2022/11/20 02:31:10;;;;;;;1.63;1.00;;;;;;;;;;4994559;28;20065;-39
2022/11/20 02:33:36;;;;;;;1.60;1.00;;;;;;;;;;4994295;28;20053;-39
2022/11/20 02:36:02;;;;;;;1.88;1.00;;;;;;;;;;4993178;28;20030;-40
2022/11/20 02:38:28;;;;;;;1.23;0.90;;;;;;;;;;4994708;28;20053;-39
2022/11/20 02:40:54;;;;;;;1.10;1.00;;;;;;;;;;4993672;28;20038;-40
2022/11/20 02:43:20;;;;;;;0.90;0.85;;;;;;;;;;4995251;28;20411;-40
2022/11/20 02:45:46;;;;;;;1.27;0.90;;;;;;;;;;4993860;28;20034;-43
2022/11/20 02:48:12;;;;;;;1.77;1.02;;;;;;;;;;4994620;28;20054;-39
2022/11/20 02:50:39;;;;;;;1.58;1.13;;;;;;;;;;4994184;28;20064;-39
2022/11/20 02:53:05;;;;;;;1.00;0.80;;;;;;;;;;4993251;28;20022;-39
2022/11/20 02:55:31;;;;;;;1.40;1.02;;;;;;;;;;4994372;28;20030;-39
2022/11/20 02:57:57;;;;;;;1.40;0.90;;;;;;;;;;4989756;28;20378;-39
2022/11/20 03:00:23;;;;;;;1.92;1.13;;;;;;;;;;4992599;28;20038;-40
2022/11/20 03:02:49;;;;;;;1.90;1.60;;;;;;;;;;4993986;28;20096;-40
2022/11/20 03:05:15;;;;;;;1.98;0.90;;;;;;;;;;4994291;28;20050;-39
2022/11/20 03:07:41;;;;;;;1.38;1.05;;;;;;;;;;4994245;28;20034;-40
2022/11/20 03:10:07;;;;;;;1.35;0.85;;;;;;;;;;4991317;28;20791;-40
2022/11/20 03:12:33;;;;;;;1.52;0.98;;;;;;;;;;4994299;28;20042;-40
2022/11/20 03:14:59;;;;;;;1.77;1.30;;;;;;;;;;4993116;28;20029;-40
2022/11/20 03:17:25;;;;;;;1.52;1.00;;;;;;;;;;4994476;28;20048;-39
2022/11/20 03:19:51;;;;;;;2.13;0.90;;;;;;;;;;4993248;28;20411;-39
2022/11/20 03:22:17;;;;;;;1.25;1.05;;;;;;;;;;4993554;28;20026;-39
2022/11/20 03:24:43;;;;;;;1.00;0.80;;;;;;;;;;5001882;28;20041;-43
2022/11/20 03:27:08;;;;;;;1.17;0.90;;;;;;;;;;4992656;28;20033;-40
2022/11/20 03:29:37;;;;;;;1.33;0.90;;;;;;;;;;4993924;28;20034;-39
2022/11/20 03:32:04;;;;;;;1.67;0.90;;;;;;;;;;4992818;28;20659;-39
2022/11/20 03:34:30;;;;;;;0.98;0.88;;;;;;;;;;4992448;28;20042;-40
2022/11/20 03:36:56;;;;;;;1.10;0.88;;;;;;;;;;4992864;28;20034;-40
2022/11/20 03:39:21;;;;;;;1.77;1.00;;;;;;;;;;4993936;28;20372;-39
2022/11/20 03:41:47;;;;;;;1.45;1.15;;;;;;;;;;4991497;28;20038;-39
2022/11/20 03:44:13;;;;;;;1.30;1.10;;;;;;;;;;4993367;28;20132;-39
2022/11/20 03:46:39;;;;;;;1.42;0.95;;;;;;;;;;4993262;28;20465;-40
2022/11/20 03:49:05;;;;;;;0.85;0.73;;;;;;;;;;4992910;28;20163;-39
2022/11/20 03:51:32;;;;;;;0.98;0.80;;;;;;;;;;4993405;28;20018;-40
2022/11/20 03:54:00;;;;;;;0.95;0.75;;;;;;;;;;4993030;28;20041;-39
2022/11/20 03:56:27;;;;;;;1.25;0.77;;;;;;;;;;4992628;28;20083;-39
2022/11/20 03:58:53;;;;;;;1.02;0.70;;;;;;;;;;4991919;28;20038;-39
2022/11/20 04:01:21;;;;;;;1.02;0.82;;;;;;;;;;4992829;28;20019;-39
2022/11/20 04:03:47;;;;;;;1.25;0.90;;;;;;;;;;4992737;28;20037;-42
2022/11/20 04:06:20;;;;;;;0.80;0.70;;;;;;;;;;4993177;28;20031;-39
2022/11/20 04:08:46;;;;;;;3.97;0.75;;;;;;;;;;4991125;28;20118;-45
2022/11/20 04:11:13;;;;;;;1.73;1.00;;;;;;;;;;4990865;28;20133;-39
2022/11/20 04:13:39;;;;;;;1.88;1.00;;;;;;;;;;4992150;28;20022;-39
2022/11/20 04:16:06;;;;;;;1.35;0.82;;;;;;;;;;4991892;28;20113;-40
2022/11/20 04:18:32;;;;;;;1.55;0.90;;;;;;;;;;4993367;28;20034;-40
2022/11/20 04:20:58;;;;;;;1.08;0.70;;;;;;;;;;4991815;28;20030;-40
2022/11/20 04:23:25;;;;;;;1.10;0.80;;;;;;;;;;4997668;28;20096;-39
2022/11/20 04:25:51;;;;;;;0.98;0.70;;;;;;;;;;4997166;28;20045;-39
2022/11/20 04:28:17;;;;;;;1.85;1.02;;;;;;;;;;4993512;28;20038;-40
2022/11/20 04:30:43;;;;;;;1.05;0.93;;;;;;;;;;4983140;28;20026;-43
2022/11/20 04:33:09;;;;;;;0.93;0.73;;;;;;;;;;4977945;28;20030;-40
2022/11/20 04:35:35;;;;;;;0.90;0.80;;;;;;;;;;4984340;28;20045;-40
2022/11/20 04:38:01;;;;;;;1.83;0.98;;;;;;;;;;4988054;28;20102;-40
2022/11/20 04:40:28;;;;;;;1.77;1.00;;;;;;;;;;4979698;28;20026;-40
2022/11/20 04:42:54;;;;;;;1.83;0.80;;;;;;;;;;4984541;28;20014;-39
2022/11/20 04:45:20;;;;;;;1.20;0.68;;;;;;;;;;4986525;28;20143;-40
2022/11/20 04:47:46;;;;;;;1.00;0.70;;;;;;;;;;4977145;28;20496;-43
2022/11/20 04:50:12;;;;;;;0.93;0.73;;;;;;;;;;4982643;28;20073;-40
2022/11/20 04:52:38;;;;;;;1.00;0.70;;;;;;;;;;4980489;28;20352;-39
2022/11/20 04:55:04;;;;;;;1.10;0.90;;;;;;;;;;4982547;28;20029;-40
2022/11/20 04:57:30;;;;;;;1.58;1.00;;;;;;;;;;4985956;28;20426;-40
2022/11/20 04:59:56;;;;;;;1.17;0.77;;;;;;;;;;4985700;28;20419;-40
2022/11/20 05:02:22;;;;;;;1.35;0.80;;;;;;;;;;4981559;28;20031;-40
2022/11/20 05:04:48;;;;;;;0.77;0.60;;;;;;;;;;4977313;28;20492;-43
2022/11/20 05:07:14;;;;;;;1.48;1.05;;;;;;;;;;4985337;28;20058;-40
2022/11/20 05:09:40;;;;;;;1.13;0.73;;;;;;;;;;4982003;28;20047;-40
2022/11/20 05:12:08;;;;;;;1.77;0.90;;;;;;;;;;4979919;28;20878;-40
2022/11/20 05:14:34;;;;;;;1.27;0.75;;;;;;;;;;4985342;28;20108;-40
2022/11/20 05:16:59;;;;;;;1.52;0.70;;;;;;;;;;4985309;28;20062;-40
2022/11/20 05:19:25;;;;;;;1.27;0.70;;;;;;;;;;4985381;28;20432;-39
2022/11/20 05:21:51;;;;;;;1.02;0.60;;;;;;;;;;4981498;28;20033;-39
2022/11/20 05:24:17;;;;;;;1.27;1.02;;;;;;;;;;4997154;28;20034;-40
2022/11/20 05:26:43;;;;;;;1.52;0.82;;;;;;;;;;4995504;28;20035;-43
2022/11/20 05:29:13;;;;;;;0.60;0.60;;;;;;;;;;4995429;28;20113;-40
2022/11/20 05:31:40;;;;;;;2.42;0.80;;;;;;;;;;4996039;28;20023;-39
2022/11/20 05:34:06;;;;;;;1.83;0.70;;;;;;;;;;4995034;28;20030;-40
2022/11/20 05:36:32;;;;;;;1.35;0.80;;;;;;;;;;4994541;28;20041;-40
2022/11/20 05:38:58;;;;;;;1.15;0.77;;;;;;;;;;4995613;28;20026;-40
2022/11/20 05:41:24;;;;;;;0.90;0.50;;;;;;;;;;4995351;28;20037;-40
2022/11/20 05:43:51;;;;;;;1.33;1.13;;;;;;;;;;4994967;28;20407;-40
2022/11/20 05:46:18;;;;;;;1.00;0.60;;;;;;;;;;4995394;28;20026;-39
2022/11/20 05:48:45;;;;;;;0.77;0.57;;;;;;;;;;4995402;28;20026;-42
2022/11/20 05:51:12;;;;;;;1.55;0.70;;;;;;;;;;4995368;28;20097;-40
2022/11/20 05:53:38;;;;;;;0.60;0.52;;;;;;;;;;4993235;28;20026;-40
2022/11/20 05:56:06;;;;;;;1.45;1.08;;;;;;;;;;4994275;28;20685;-39
2022/11/20 05:58:32;;;;;;;1.63;0.73;;;;;;;;;;4995369;28;20476;-40
2022/11/20 06:01:09;;;;;;;2.25;0.88;;;;;;;;;;4993734;28;20065;-40
2022/11/20 06:03:35;;;;;;;0.77;0.60;;;;;;;;;;4994079;28;20058;-39
2022/11/20 06:06:01;;;;;;;0.90;0.70;;;;;;;;;;4994342;28;20429;-40
2022/11/20 06:08:27;;;;;;;1.15;0.80;;;;;;;;;;4994505;28;20030;-40
2022/11/20 06:10:53;;;;;;;0.70;0.68;;;;;;;;;;4993368;28;20048;-40
2022/11/20 06:13:19;;;;;;;0.93;0.68;;;;;;;;;;4995138;28;20026;-39
2022/11/20 06:15:52;;;;;;;1.10;0.88;;;;;;;;;;4994687;28;20034;-43
2022/11/20 06:18:18;;;;;;;1.63;0.60;;;;;;;;;;4995809;28;20034;-40
2022/11/20 06:20:44;;;;;;;1.02;0.82;;;;;;;;;;4994773;28;20034;-43
2022/11/20 06:23:11;;;;;;;1.35;1.05;;;;;;;;;;4997076;28;20042;-39
2022/11/20 06:25:41;;;;;;;2.15;0.75;;;;;;;;;;5001455;28;20038;-40
2022/11/20 06:28:07;;;;;;;1.13;0.70;;;;;;;;;;4994403;28;20446;-39
2022/11/20 06:30:33;;;;;;;0.52;0.50;;;;;;;;;;4994229;28;20060;-39
2022/11/20 06:32:59;;;;;;;1.27;0.68;;;;;;;;;;4993405;28;20109;-40
2022/11/20 06:35:25;;;;;;;0.98;0.60;;;;;;;;;;4992344;28;20122;-39
2022/11/20 06:37:51;;;;;;;1.27;0.75;;;;;;;;;;4994086;28;20061;-40
2022/11/20 06:40:17;;;;;;;0.60;0.60;;;;;;;;;;4994765;28;20132;-39
2022/11/20 06:42:43;;;;;;;0.73;0.52;;;;;;;;;;4995040;28;20054;-42
2022/11/20 06:45:10;;;;;;;0.80;0.60;;;;;;;;;;4993390;28;20442;-39
2022/11/20 06:47:35;;;;;;;0.52;0.52;;;;;;;;;;4994821;28;20487;-39
2022/11/20 06:50:02;;;;;;;0.80;0.65;;;;;;;;;;4993459;28;20032;-40
2022/11/20 06:52:28;;;;;;;0.85;0.68;;;;;;;;;;4994993;28;20036;-39
2022/11/20 06:54:53;;;;;;;0.60;0.60;;;;;;;;;;4992559;28;20543;-39
2022/11/20 06:57:19;;;;;;;1.33;0.80;;;;;;;;;;4993674;28;20072;-39
2022/11/20 06:59:45;;;;;;;0.80;0.57;;;;;;;;;;4993168;28;20033;-42
2022/11/20 07:02:12;;;;;;;0.88;0.70;;;;;;;;;;4992945;28;20502;-39
2022/11/20 07:04:38;;;;;;;0.98;0.65;;;;;;;;;;4994277;28;20030;-39
2022/11/20 07:07:05;;;;;;;1.55;0.82;;;;;;;;;;4992660;28;20105;-39
2022/11/20 07:09:31;;;;;;;1.13;0.50;;;;;;;;;;4994187;28;20049;-38
2022/11/20 07:11:57;;;;;;;0.75;0.70;;;;;;;;;;4992158;28;20467;-39
2022/11/20 07:14:23;;;;;;;0.95;0.50;;;;;;;;;;4982345;28;20097;-39
2022/11/20 07:16:49;;;;;;;1.02;0.80;;;;;;;;;;4982593;28;20029;-40
2022/11/20 07:19:15;;;;;;;0.60;0.50;;;;;;;;;;4987665;28;20031;-39
2022/11/20 07:21:41;;;;;;;0.68;0.50;;;;;;;;;;4992094;28;20108;-39
2022/11/20 07:24:07;;;;;;;0.70;0.50;;;;;;;;;;4989971;28;20034;-39
2022/11/20 07:26:33;;;;;;;1.55;0.63;;;;;;;;;;4991946;28;20046;-39
2022/11/20 07:28:59;;;;;;;4.60;1.10;;;;;;;;;;4990006;28;20030;-39
2022/11/20 07:31:25;;;;;;;1.00;0.70;;;;;;;;;;4986336;28;20041;-39
2022/11/20 07:33:51;;;;;;;0.82;0.75;;;;;;;;;;4992332;28;20146;-39
2022/11/20 07:36:17;;;;;;;0.60;0.60;;;;;;;;;;4991618;28;20052;-39
2022/11/20 07:38:47;;;;;;;1.20;0.70;;;;;;;;;;4993286;28;20074;-42
2022/11/20 07:41:13;;;;;;;2.67;0.68;;;;;;;;;;4979985;28;20046;-40
2022/11/20 07:43:39;;;;;;;1.92;0.60;;;;;;;;;;4990542;28;20053;-39
2022/11/20 07:46:05;;;;;;;4.85;1.08;;;;;;;;;;4972302;28;20070;-38
2022/11/20 07:48:31;;;;;;;1.30;0.60;;;;;;;;;;4992045;28;20050;-39
2022/11/20 07:50:57;;;;;;;2.63;0.70;;;;;;;;;;4986948;28;20093;-39
2022/11/20 07:53:23;;;;;;;4.30;1.00;;;;;;;;;;4992721;28;20060;-40
2022/11/20 07:55:52;;;;;;;0.98;0.70;;;;;;;;;;4989473;28;20125;-39
2022/11/20 07:58:18;;;;;;;2.47;0.90;;;;;;;;;;4993097;28;20026;-38
2022/11/20 08:00:44;;;;;;;2.83;1.13;;;;;;;;;;4981351;28;20480;-41
2022/11/20 08:03:10;;;;;;;6.15;1.00;;;;;;;;;;4992582;28;20054;-38
2022/11/20 08:05:37;;;;;;;3.47;0.70;;;;;;;;;;4984685;28;20050;-40
2022/11/20 08:08:03;;;;;;;3.20;0.68;;;;;;;;;;4990567;28;20026;-39
2022/11/20 08:10:29;;;;;;;1.17;0.80;;;;;;;;;;4985216;28;20506;-39
2022/11/20 08:15:40;;;;;;;2.65;0.70;;;;;;;;;;4985943;28;20045;-39
2022/11/20 08:18:08;;;;;;;2.17;0.77;;;;;;;;;;4990523;28;20018;-39
2022/11/20 08:20:34;;;;;;;9.48;0.88;;;;;;;;;;4987110;28;20085;-39
2022/11/20 08:23:01;;;;;;;3.20;0.82;;;;;;;;;;4990246;28;20026;-39
2022/11/20 08:25:28;;;;;;;3.15;0.90;;;;;;;;;;4981566;28;20059;-40
2022/11/20 08:27:54;;;;;;;0.65;0.60;;;;;;;;;;4991301;28;20034;-41
2022/11/20 08:30:20;;;;;;;0.95;0.65;;;;;;;;;;4988987;28;20101;-38
2022/11/20 08:32:46;;;;;;;3.10;0.90;;;;;;;;;;4991398;28;20109;-42
2022/11/20 08:35:12;;;;;;;1.70;0.50;;;;;;;;;;4990675;28;20360;-41
2022/11/20 08:37:41;;;;;;;1.23;0.90;;;;;;;;;;4990459;28;20113;-39
2022/11/20 08:40:07;;;;;;;2.28;1.35;;;;;;;;;;4980508;28;20616;-39
2022/11/20 08:42:33;;;;;;;1.55;0.68;;;;;;;;;;4988939;28;20070;-39
2022/11/20 08:44:59;;;;;;;2.63;0.75;;;;;;;;;;4981106;28;20093;-39
2022/11/20 08:47:25;;;;;;;10.07;1.20;;;;;;;;;;4990882;28;20046;-39
2022/11/20 08:49:51;;;;;;;2.55;0.65;;;;;;;;;;4982334;28;20059;-39
2022/11/20 08:52:17;;;;;;;4.38;1.33;;;;;;;;;;4991609;28;20042;-39
2022/11/20 08:54:43;;;;;;;2.97;0.70;;;;;;;;;;4982733;28;20114;-42
2022/11/20 08:57:09;;;;;;;1.80;0.70;;;;;;;;;;4987983;28;20392;-39
2022/11/20 08:59:35;;;;;;;1.75;0.80;;;;;;;;;;4982691;28;20076;-39
2022/11/20 09:02:01;;;;;;;3.63;1.00;;;;;;;;;;4986079;28;20041;-39
2022/11/20 09:04:27;;;;;;;3.10;0.80;;;;;;;;;;4983417;28;20030;-41
2022/11/20 09:06:53;;;;;;;1.42;0.68;;;;;;;;;;4989143;28;20042;-39
2022/11/20 09:09:19;;;;;;;3.75;0.98;;;;;;;;;;4987612;28;20092;-40
2022/11/20 09:11:45;;;;;;;2.53;0.63;;;;;;;;;;4981689;28;20038;-42
2022/11/20 09:14:11;;;;;;;3.92;0.60;;;;;;;;;;4987254;28;20038;-39
2022/11/20 09:16:37;;;;;;;5.35;0.70;;;;;;;;;;4983632;28;20477;-39
2022/11/20 09:19:03;;;;;;;1.60;0.93;;;;;;;;;;4989135;28;20496;-39
2022/11/20 09:21:29;;;;;;;4.22;0.70;;;;;;;;;;4981831;28;20039;-40
2022/11/20 09:23:54;;;;;;;6.78;1.08;;;;;;;;;;4989808;28;20058;-40
2022/11/20 09:26:20;;;;;;;4.35;0.80;;;;;;;;;;4987318;28;20142;-39
2022/11/20 09:28:46;;;;;;;1.33;0.70;;;;;;;;;;4990126;28;20034;-42
2022/11/20 09:31:26;;;;;;;4.38;0.75;;;;;;;;;;4987779;28;20546;-39
2022/11/20 09:33:52;;;;;;;3.47;0.68;;;;;;;;;;4990563;28;20076;-42
2022/11/20 09:36:18;;;;;;;3.97;0.80;;;;;;;;;;4983752;28;20042;-39
2022/11/20 09:38:45;;;;;;;3.40;0.93;;;;;;;;;;4990056;28;20026;-41
2022/11/20 09:41:24;;;;;;;2.85;0.90;;;;;;;;;;4984072;28;20533;-39
2022/11/20 09:44:05;;;;;;;4.30;0.50;;;;;;;;;;4985513;28;20476;-40
2022/11/20 09:46:43;;;;;;;0.85;0.40;;;;;;;;;;4983591;28;20085;-40
2022/11/20 09:49:12;;;;;;;2.55;0.55;;;;;;;;;;4984294;28;20037;-39
2022/11/20 09:52:04;;;;;;;1.23;0.60;;;;;;;;;;4989147;28;20054;-39
2022/11/20 09:54:32;;;;;;;1.60;0.65;;;;;;;;;;4955873;28;20074;-40
2022/11/20 09:57:04;;;;;;;1.33;0.60;;;;;;;;;;4988406;28;20434;-39
2022/11/20 09:59:36;;;;;;;1.38;0.60;;;;;;;;;;4983702;28;20476;-40
2022/11/20 10:02:07;;;;;;;0.88;0.47;;;;;;;;;;4982116;28;20030;-39
2022/11/20 10:04:34;;;;;;;1.13;0.63;;;;;;;;;;4986141;28;20464;-39
2022/11/20 10:07:06;;;;;;;2.25;0.88;;;;;;;;;;4991525;28;20027;-39
2022/11/20 10:09:35;;;;;;;1.67;0.65;;;;;;;;;;4987861;28;20096;-39
2022/11/20 10:12:10;;;;;;;3.25;0.98;;;;;;;;;;4985399;28;20035;-39
2022/11/20 10:14:43;;;;;;;2.45;0.55;;;;;;;;;;4990072;28;20042;-39
2022/11/20 10:17:09;;;;;;;1.17;0.52;;;;;;;;;;4993799;28;20041;-39
2022/11/20 10:20:04;;;;;;;1.02;0.50;;;;;;;;;;4990548;28;20038;-38
2022/11/20 10:22:49;;;;;;;1.00;0.60;;;;;;;;;;4975133;28;20038;-40
2022/11/20 10:25:41;;;;;;;0.68;0.50;;;;;;;;;;4992152;28;20082;-39
2022/11/20 10:28:25;;;;;;;0.55;0.40;;;;;;;;;;4962259;28;20038;-40
2022/11/20 10:30:57;;;;;;;3.47;0.47;;;;;;;;;;4991464;28;20050;-39
2022/11/20 10:33:24;;;;;;;0.65;0.50;;;;;;;;;;4994266;28;20439;-39
2022/11/20 10:35:57;;;;;;;0.68;0.47;;;;;;;;;;4980636;28;20026;-39
2022/11/20 10:38:31;;;;;;;3.80;0.70;;;;;;;;;;4989978;28;20058;-39
2022/11/20 10:41:24;;;;;;;1.02;0.75;;;;;;;;;;4980778;28;20026;-39
2022/11/20 10:43:46;;;;;;;1.75;0.70;;;;;;;;;;4992515;28;20472;-41
2022/11/20 10:46:17;;;;;;;1.30;0.57;;;;;;;;;;4982904;28;20479;-39
2022/11/20 10:48:44;;;;;;;1.98;0.40;;;;;;;;;;4983959;28;20085;-41
2022/11/20 10:51:16;;;;;;;1.10;0.45;;;;;;;;;;4985283;28;20026;-39
2022/11/20 10:53:52;;;;;;;0.85;0.60;;;;;;;;;;4993572;28;20034;-39
2022/11/20 10:56:18;;;;;;;2.72;0.85;;;;;;;;;;4985455;28;20030;-39
2022/11/20 10:59:03;;;;;;;1.15;0.40;;;;;;;;;;4992779;28;20395;-44
2022/11/20 11:01:29;;;;;;;2.25;0.60;;;;;;;;;;4987451;28;20153;-41
2022/11/20 11:03:56;;;;;;;0.63;0.50;;;;;;;;;;4989226;28;20057;-40
2022/11/20 11:06:43;;;;;;;1.83;0.40;;;;;;;;;;4993017;28;20105;-40
2022/11/20 11:09:21;;;;;;;2.58;0.63;;;;;;;;;;4989104;28;20046;-39
2022/11/20 11:11:48;;;;;;;0.60;0.40;;;;;;;;;;4991308;28;20045;-42
2022/11/20 11:14:15;;;;;;;0.90;0.52;;;;;;;;;;4990523;28;20034;-39
2022/11/20 11:16:52;;;;;;;1.25;0.50;;;;;;;;;;4986566;28;20151;-38
2022/11/20 11:19:18;;;;;;;0.30;0.30;;;;;;;;;;4986141;28;20046;-39
2022/11/20 11:21:47;;;;;;;0.50;0.38;;;;;;;;;;4992675;28;20077;-41
2022/11/20 11:24:27;;;;;;;0.60;0.40;;;;;;;;;;4991301;28;20368;-39
2022/11/20 11:27:04;;;;;;;2.53;0.68;;;;;;;;;;4985218;28;20476;-39
2022/11/20 11:29:30;;;;;;;1.42;0.50;;;;;;;;;;4990578;28;20030;-39
2022/11/20 11:32:12;;;;;;;0.73;0.55;;;;;;;;;;4992416;28;20034;-39
2022/11/20 11:34:37;;;;;;;0.77;0.40;;;;;;;;;;4985599;28;20047;-39
2022/11/20 11:37:04;;;;;;;0.85;0.30;;;;;;;;;;4984980;28;20033;-39
2022/11/20 11:39:31;;;;;;;0.63;0.40;;;;;;;;;;4974931;28;20039;-40
2022/11/20 11:42:01;;;;;;;1.88;0.88;;;;;;;;;;4984626;28;20483;-38
2022/11/20 11:47:27;;;;;;;0.63;0.47;;;;;;;;;;4992426;28;20169;-39
2022/11/20 11:50:02;;;;;;;0.88;0.47;;;;;;;;;;4984069;28;20480;-39
2022/11/20 11:52:29;;;;;;;1.45;0.70;;;;;;;;;;4992486;28;20053;-39
2022/11/20 11:55:03;;;;;;;0.98;0.50;;;;;;;;;;4984454;28;20039;-39
2022/11/20 11:57:29;;;;;;;1.08;0.43;;;;;;;;;;4991742;28;20030;-39
2022/11/20 11:59:58;;;;;;;1.75;0.47;;;;;;;;;;4985709;28;20042;-38
2022/11/20 12:02:42;;;;;;;0.60;0.52;;;;;;;;;;4987161;28;20035;-40
2022/11/20 12:05:23;;;;;;;0.80;0.40;;;;;;;;;;4987141;28;20085;-39
2022/11/20 12:08:03;;;;;;;0.60;0.40;;;;;;;;;;4990142;28;20482;-39
2022/11/20 12:10:34;;;;;;;0.95;0.50;;;;;;;;;;4988092;28;20046;-41
2022/11/20 12:13:23;;;;;;;0.43;0.40;;;;;;;;;;4990883;28;20076;-39
2022/11/20 12:15:50;;;;;;;1.00;0.60;;;;;;;;;;4987085;28;20030;-39
2022/11/20 12:18:17;;;;;;;1.45;0.70;;;;;;;;;;4992255;28;20039;-39
2022/11/20 12:20:46;;;;;;;1.77;0.40;;;;;;;;;;4990639;28;20058;-39
2022/11/20 12:23:25;;;;;;;0.88;0.40;;;;;;;;;;4991161;28;20058;-39
2022/11/20 12:25:53;;;;;;;1.02;0.57;;;;;;;;;;4978459;28;20125;-39
2022/11/20 12:28:22;;;;;;;0.52;0.40;;;;;;;;;;4991654;28;20105;-39
2022/11/20 12:30:55;;;;;;;2.25;0.90;;;;;;;;;;4977626;28;20053;-39
2022/11/20 12:33:24;;;;;;;1.27;0.40;;;;;;;;;;4992208;28;20018;-39
2022/11/20 12:36:14;;;;;;;0.75;0.40;;;;;;;;;;4980034;28;20053;-39
2022/11/20 12:38:46;;;;;;;0.35;0.35;;;;;;;;;;4990551;28;20042;-38
2022/11/20 12:47:20;;;;;;;0.55;0.30;;;;;;;;;;4987328;28;20108;-38
2022/11/20 12:50:06;;;;;;;0.40;0.40;;;;;;;;;;4934514;28;20034;-42
2022/11/20 12:52:39;;;;;;;0.80;0.50;;;;;;;;;;4987669;28;20368;-39
2022/11/20 12:55:14;;;;;;;0.75;0.65;;;;;;;;;;4983155;28;20045;-39
2022/11/20 12:57:49;;;;;;;2.30;1.13;;;;;;;;;;4989133;28;20105;-39
2022/11/20 13:00:18;;;;;;;3.45;0.50;;;;;;;;;;4973539;28;20041;-39
2022/11/20 13:03:16;;;;;;;0.40;0.40;;;;;;;;;;4986406;28;20030;-41
2022/11/20 13:05:42;;;;;;;1.65;0.40;;;;;;;;;;4943595;28;20079;-39
2022/11/20 13:08:20;;;;;;;1.92;0.50;;;;;;;;;;4991248;28;20061;-39
2022/11/20 13:10:52;;;;;;;0.93;0.60;;;;;;;;;;4977029;28;20483;-42
2022/11/20 13:13:30;;;;;;;0.77;0.57;;;;;;;;;;4990449;28;20034;-39
2022/11/20 13:16:00;;;;;;;1.40;0.60;;;;;;;;;;4978317;28;20050;-39
2022/11/20 13:18:26;;;;;;;2.50;0.70;;;;;;;;;;4991259;28;20057;-40
2022/11/20 13:20:53;;;;;;;2.80;0.70;;;;;;;;;;4980044;28;20388;-39
2022/11/20 13:23:26;;;;;;;3.03;0.50;;;;;;;;;;4989772;28;20062;-38
2022/11/20 13:26:03;;;;;;;3.08;0.70;;;;;;;;;;4976174;28;20562;-38
2022/11/20 13:28:30;;;;;;;2.15;0.82;;;;;;;;;;4982724;28;20026;-41
2022/11/20 13:30:57;;;;;;;1.58;0.50;;;;;;;;;;4975377;28;20093;-38
2022/11/20 13:33:26;;;;;;;4.85;0.40;;;;;;;;;;4982060;28;20033;-41
2022/11/20 13:35:59;;;;;;;2.92;0.68;;;;;;;;;;4979546;28;20439;-38
2022/11/20 13:38:25;;;;;;;1.30;0.50;;;;;;;;;;4984290;28;20122;-39
2022/11/20 13:40:58;;;;;;;1.90;0.68;;;;;;;;;;4982789;28;20041;-38
2022/11/20 13:43:30;;;;;;;1.30;0.70;;;;;;;;;;4990308;28;20027;-39
2022/11/20 13:45:57;;;;;;;2.55;0.60;;;;;;;;;;4987371;28;21268;-38
2022/11/20 13:48:24;;;;;;;1.23;0.60;;;;;;;;;;4984075;28;20061;-38
2022/11/20 13:51:10;;;;;;;1.77;0.52;;;;;;;;;;4984482;28;20039;-38
2022/11/20 13:53:48;;;;;;;1.73;0.43;;;;;;;;;;4983204;28;20026;-38
2022/11/20 13:56:19;;;;;;;1.13;0.60;;;;;;;;;;4984476;28;20361;-38
2022/11/20 13:59:04;;;;;;;2.35;0.68;;;;;;;;;;4987789;28;20042;-41
2022/11/20 14:01:31;;;;;;;1.58;0.65;;;;;;;;;;4983283;28;20043;-38
2022/11/20 14:03:58;;;;;;;1.50;0.50;;;;;;;;;;4980958;28;20360;-39
2022/11/20 14:06:29;;;;;;;1.35;0.65;;;;;;;;;;4988359;28;20188;-39
2022/11/20 14:08:56;;;;;;;0.93;0.43;;;;;;;;;;4982407;28;20480;-40
2022/11/20 14:11:24;;;;;;;0.70;0.50;;;;;;;;;;4980972;28;20050;-38
2022/11/20 14:14:03;;;;;;;0.70;0.60;;;;;;;;;;4984161;28;20010;-40
2022/11/20 14:16:31;;;;;;;1.25;0.40;;;;;;;;;;4981979;28;20521;-40
2022/11/20 14:18:58;;;;;;;0.60;0.50;;;;;;;;;;4984066;28;20379;-38
2022/11/20 14:21:29;;;;;;;0.70;0.47;;;;;;;;;;4987059;28;20035;-39
2022/11/20 14:24:15;;;;;;;0.55;0.40;;;;;;;;;;4978840;28;20372;-39
2022/11/20 14:26:42;;;;;;;0.95;0.40;;;;;;;;;;4980423;28;20046;-38
2022/11/20 14:29:17;;;;;;;0.80;0.40;;;;;;;;;;4986048;28;20027;-38
2022/11/20 14:31:43;;;;;;;1.15;0.80;;;;;;;;;;4983958;28;20035;-38
2022/11/20 14:34:23;;;;;;;1.05;0.57;;;;;;;;;;4984349;28;20097;-38
2022/11/20 14:36:52;;;;;;;2.05;0.60;;;;;;;;;;4984568;28;20482;-39
2022/11/20 14:39:38;;;;;;;0.75;0.40;;;;;;;;;;4984488;28;20030;-38
2022/11/20 14:42:15;;;;;;;1.27;1.10;;;;;;;;;;4984876;28;20046;-38
2022/11/20 14:44:41;;;;;;;1.00;0.40;;;;;;;;;;4982783;28;20027;-38
2022/11/20 14:47:10;;;;;;;1.70;0.55;;;;;;;;;;4981897;28;20038;-38
2022/11/20 14:49:36;;;;;;;1.75;0.52;;;;;;;;;;4981324;28;20422;-38
2022/11/20 14:52:13;;;;;;;0.85;0.50;;;;;;;;;;4984304;28;20043;-38
2022/11/20 14:54:49;;;;;;;1.20;0.55;;;;;;;;;;4980422;28;20490;-38
2022/11/20 14:57:26;;;;;;;1.75;0.55;;;;;;;;;;4988327;28;20061;-38
2022/11/20 15:00:04;;;;;;;1.95;0.70;;;;;;;;;;4985619;28;20030;-38
2022/11/20 15:02:30;;;;;;;0.93;0.60;;;;;;;;;;4983082;28;20018;-42
2022/11/20 15:05:03;;;;;;;1.40;0.80;;;;;;;;;;4983717;28;20034;-38
2022/11/20 15:07:36;;;;;;;0.98;0.50;;;;;;;;;;4982231;28;20031;-40